Time;durP1;ratioP1;P1;durP2;ratioP2;P2;SDS_P1;SDS_P2;PMS_P1;PMS_P2;Temp;Humidity;BMP_temperature;BMP_pressure;BME280_temperature;BME280_humidity;BME280_pressure;Samples;Min_cycle;Max_cycle;Signal;HPM_P1;HPM_P2
2022/09/21 00:03:53;;;;;;;;;;;;;;;7.70;88.51;100137.78;8295456;28;19955;-76
2022/09/21 00:08:02;;;;;;;;;;;;;;;7.64;88.63;100150.59;8288652;28;20261;-76
2022/09/21 00:12:11;;;;;;;;;;;;;;;7.61;88.73;100142.78;8311205;28;19922;-76
2022/09/21 00:16:19;;;;;;;;;;;;;;;7.56;88.84;100146.16;8304321;28;20508;-76
2022/09/21 00:20:21;;;;;;;;;;;;;;;7.56;88.57;100142.72;8300389;28;20525;-76
2022/09/21 00:24:28;;;;;;;;;;;;;;;7.50;88.40;100138.28;8299451;28;19925;-76
2022/09/21 00:28:30;;;;;;;;;;;;;;;7.44;88.27;100135.56;8305610;28;19929;-76
2022/09/21 00:32:38;;;;;;;;;;;;;;;7.43;88.06;100135.53;8313480;28;20367;-76
2022/09/21 00:36:46;;;;;;;;;;;;;;;7.38;88.23;100137.19;8286042;28;20715;-76
2022/09/21 00:40:48;;;;;;;;;;;;;;;7.32;88.10;100139.63;8305883;28;19932;-76
2022/09/21 00:44:56;;;;;;;;;;;;;;;7.22;88.08;100144.59;8286732;28;19987;-76
2022/09/21 00:49:04;;;;;;;;;;;;;;;7.12;87.84;100139.19;8301169;28;19929;-76
2022/09/21 00:53:05;;;;;;;;;;;;;;;7.11;88.18;100145.19;8297668;28;20373;-75
2022/09/21 00:57:14;;;;;;;;;;;;;;;7.05;87.96;100145.09;8303140;28;20299;-75
2022/09/21 01:01:17;;;;;;;;;;;;;;;6.98;88.26;100144.06;8309478;28;19925;-75
2022/09/21 01:05:18;;;;;;;;;;;;;;;6.94;88.31;100142.25;8307167;28;19925;-76
2022/09/21 01:09:20;;;;;;;;;;;;;;;6.93;88.54;100146.53;8307441;28;19929;-75
2022/09/21 01:13:35;;;;;;;;;;;;;;;6.89;88.51;100149.91;8310801;28;19940;-75
2022/09/21 01:17:37;;;;;;;;;;;;;;;6.85;88.41;100140.34;8303704;28;19925;-76
2022/09/21 01:21:47;;;;;;;;;;;;;;;6.79;88.33;100144.47;8311653;28;20321;-75
2022/09/21 01:25:52;;;;;;;;;;;;;;;6.79;88.48;100152.22;8307760;28;19925;-76
2022/09/21 01:29:57;;;;;;;;;;;;;;;6.74;88.41;100149.53;8322692;28;19928;-76
2022/09/21 01:34:09;;;;;;;;;;;;;;;6.75;88.55;100148.72;8296911;28;19924;-75
2022/09/21 01:38:31;;;;;;;;;;;;;;;6.69;88.46;100142.53;8303713;28;19930;-76
2022/09/21 01:42:33;;;;;;;;;;;;;;;6.57;88.20;100151.72;8304224;28;20246;-76
2022/09/21 01:46:36;;;;;;;;;;;;;;;6.54;88.23;100153.38;8304623;28;19929;-76
2022/09/21 01:50:40;;;;;;;;;;;;;;;6.48;88.10;100154.09;8308248;28;19984;-76
2022/09/21 01:54:47;;;;;;;;;;;;;;;6.44;88.03;100144.53;8302797;28;19925;-76
2022/09/21 01:58:48;;;;;;;;;;;;;;;6.35;87.79;100154.63;8306900;28;19925;-76
2022/09/21 02:03:07;;;;;;;;;;;;;;;6.34;87.91;100155.47;8300985;28;19925;-76
2022/09/21 02:07:09;;;;;;;;;;;;;;;6.31;88.24;100152.81;8303794;28;19929;-76
2022/09/21 02:11:12;;;;;;;;;;;;;;;6.26;87.94;100149.22;8290705;28;19987;-76
2022/09/21 02:15:13;;;;;;;;;;;;;;;6.17;87.63;100146.44;8329940;28;19929;-76
2022/09/21 02:19:15;;;;;;;;;;;;;;;6.07;88.13;100141.03;8311159;28;20329;-76
2022/09/21 02:23:22;;;;;;;;;;;;;;;5.99;87.76;100147.72;8309311;28;19983;-76
2022/09/21 02:27:29;;;;;;;;;;;;;;;5.95;87.95;100145.91;8315103;28;20320;-76
2022/09/21 02:31:33;;;;;;;;;;;;;;;5.91;88.05;100149.19;8309312;28;19928;-76
2022/09/21 02:35:48;;;;;;;;;;;;;;;5.87;88.13;100149.91;8308736;28;20587;-76
2022/09/21 02:39:57;;;;;;;;;;;;;;;5.89;88.10;100155.13;8323513;28;20343;-76
2022/09/21 02:44:08;;;;;;;;;;;;;;;5.81;88.44;100151.47;8312199;28;19940;-76
2022/09/21 02:48:15;;;;;;;;;;;;;;;5.79;88.22;100150.56;8307213;28;19998;-76
2022/09/21 02:52:25;;;;;;;;;;;;;;;5.75;88.75;100147.91;8311242;28;19955;-76
2022/09/21 02:56:27;;;;;;;;;;;;;;;5.71;88.67;100153.78;8323768;28;19924;-76
2022/09/21 03:00:29;;;;;;;;;;;;;;;5.70;87.99;100146.03;8308867;28;19925;-76
2022/09/21 03:04:31;;;;;;;;;;;;;;;5.62;88.20;100144.94;8311733;28;19925;-76
2022/09/21 03:08:40;;;;;;;;;;;;;;;5.59;88.41;100135.44;8308449;28;20011;-76
2022/09/21 03:12:43;;;;;;;;;;;;;;;5.55;88.68;100138.75;8309597;28;19928;-76
2022/09/21 03:16:45;;;;;;;;;;;;;;;5.51;88.96;100128.31;8318313;28;19925;-76
2022/09/21 03:20:46;;;;;;;;;;;;;;;5.43;88.91;100135.84;8299933;28;19925;-76
2022/09/21 03:24:47;;;;;;;;;;;;;;;5.43;88.92;100131.56;8302496;28;20405;-76
2022/09/21 03:28:49;;;;;;;;;;;;;;;5.46;89.07;100135.91;8286722;28;19984;-76
2022/09/21 03:32:51;;;;;;;;;;;;;;;5.45;89.31;100137.63;8309264;28;20523;-76
2022/09/21 03:36:52;;;;;;;;;;;;;;;5.42;88.44;100136.66;8309070;28;19928;-76
2022/09/21 03:40:56;;;;;;;;;;;;;;;5.39;88.56;100132.31;8312081;28;19933;-75
2022/09/21 03:44:58;;;;;;;;;;;;;;;5.35;89.02;100135.59;8313192;28;19987;-75
2022/09/21 03:49:01;;;;;;;;;;;;;;;5.33;88.67;100144.13;8287316;28;19924;-76
2022/09/21 03:53:03;;;;;;;;;;;;;;;5.29;88.35;100148.31;8314196;28;19924;-75
2022/09/21 03:57:04;;;;;;;;;;;;;;;5.22;88.10;100146.41;8305992;28;21376;-76
2022/09/21 04:01:06;;;;;;;;;;;;;;;5.16;88.51;100148.78;8302842;28;19925;-75
2022/09/21 04:05:08;;;;;;;;;;;;;;;5.14;88.33;100145.28;8302328;28;19926;-75
2022/09/21 04:09:09;;;;;;;;;;;;;;;5.11;88.20;100145.22;8297693;28;19987;-75
2022/09/21 04:13:12;;;;;;;;;;;;;;;5.08;88.30;100152.84;8302057;28;19926;-75
2022/09/21 04:17:14;;;;;;;;;;;;;;;5.04;88.24;100153.59;8299647;28;20337;-75
2022/09/21 04:21:16;;;;;;;;;;;;;;;5.02;88.37;100155.22;8305120;28;19925;-75
2022/09/21 04:25:17;;;;;;;;;;;;;;;5.00;88.51;100162.03;8308469;28;20550;-75
2022/09/21 04:29:25;;;;;;;;;;;;;;;4.88;88.46;100149.69;8308434;28;20380;-75
2022/09/21 04:33:26;;;;;;;;;;;;;;;4.84;88.34;100158.09;8316406;28;19925;-75
2022/09/21 04:37:27;;;;;;;;;;;;;;;4.78;88.44;100158.78;8309840;28;20395;-75
2022/09/21 04:41:29;;;;;;;;;;;;;;;4.77;88.53;100163.91;8315105;28;19986;-75
2022/09/21 04:45:31;;;;;;;;;;;;;;;4.74;88.21;100167.25;8306950;28;19983;-75
2022/09/21 04:49:39;;;;;;;;;;;;;;;4.60;87.99;100170.22;8307177;28;19924;-76
2022/09/21 04:53:41;;;;;;;;;;;;;;;4.54;88.41;100179.47;8308130;28;19929;-75
2022/09/21 04:57:43;;;;;;;;;;;;;;;4.49;88.20;100170.75;8311217;28;19984;-75
2022/09/21 05:01:44;;;;;;;;;;;;;;;4.51;89.01;100175.94;8285857;28;20402;-75
2022/09/21 05:05:55;;;;;;;;;;;;;;;4.48;88.88;100174.13;8312096;28;20589;-75
2022/09/21 05:10:03;;;;;;;;;;;;;;;4.44;89.19;100177.44;8324412;28;20312;-75
2022/09/21 05:14:04;;;;;;;;;;;;;;;4.42;88.95;100175.63;8308956;28;19929;-75
2022/09/21 05:18:06;;;;;;;;;;;;;;;4.41;88.80;100179.03;8296783;28;19932;-76
2022/09/21 05:22:07;;;;;;;;;;;;;;;4.43;89.01;100179.94;8301828;28;19991;-76
2022/09/21 05:26:08;;;;;;;;;;;;;;;4.45;88.73;100183.44;8319969;28;19925;-76
2022/09/21 05:30:17;;;;;;;;;;;;;;;4.42;88.56;100193.63;8304337;28;19986;-77
2022/09/21 05:34:44;;;;;;;;;;;;;;;4.44;88.63;100186.84;8306661;28;20342;-75
2022/09/21 05:38:46;;;;;;;;;;;;;;;4.47;88.93;100200.66;8305231;28;19979;-73
2022/09/21 05:42:55;;;;;;;;;;;;;;;4.49;88.95;100195.59;8312495;28;19932;-73
2022/09/21 05:46:58;;;;;;;;;;;;;;;4.48;88.43;100197.25;8305352;28;20353;-73
2022/09/21 05:51:12;;;;;;;;;;;;;;;4.48;88.85;100202.41;8307235;28;19925;-73
2022/09/21 05:55:32;;;;;;;;;;;;;;;4.54;88.64;100209.47;8304432;28;19924;-73
2022/09/21 05:59:33;;;;;;;;;;;;;;;4.57;89.05;100211.25;8310778;28;19952;-73
2022/09/21 06:03:35;;;;;;;;;;;;;;;4.63;89.12;100209.75;8315793;28;19983;-73
2022/09/21 06:07:43;;;;;;;;;;;;;;;4.82;89.31;100214.66;8310556;28;19935;-74
2022/09/21 06:11:44;;;;;;;;;;;;;;;4.99;89.71;100214.31;8290423;28;20010;-74
2022/09/21 06:15:46;;;;;;;;;;;;;;;5.15;89.24;100217.41;8307778;28;19929;-74
2022/09/21 06:19:47;;;;;;;;;;;;;;;5.40;89.04;100224.19;8311475;28;19932;-75
2022/09/21 06:23:48;;;;;;;;;;;;;;;5.72;88.96;100222.53;8330706;28;19924;-75
2022/09/21 06:27:49;;;;;;;;;;;;;;;6.09;87.87;100222.69;8319630;28;20357;-75
2022/09/21 06:31:51;;;;;;;;;;;;;;;6.39;86.82;100225.22;8301212;28;19929;-76
2022/09/21 06:35:56;;;;;;;;;;;;;;;6.67;86.56;100217.34;8289096;28;19983;-76
2022/09/21 06:39:58;;;;;;;;;;;;;;;7.04;85.90;100218.22;8244584;28;19937;-78
2022/09/21 06:44:06;;;;;;;;;;;;;;;7.37;84.93;100220.69;8262421;28;19936;-76
2022/09/21 06:48:08;;;;;;;;;;;;;;;7.75;84.03;100229.25;8268425;28;20022;-76
2022/09/21 06:52:09;;;;;;;;;;;;;;;8.16;83.09;100217.97;8260503;28;19929;-77
2022/09/21 06:56:11;;;;;;;;;;;;;;;8.57;82.03;100217.00;8278363;28;20013;-77
2022/09/21 07:00:15;;;;;;;;;;;;;;;9.01;80.44;100215.13;8284432;28;19968;-76
2022/09/21 07:04:17;;;;;;;;;;;;;;;9.43;79.47;100214.84;8264205;28;20388;-74
2022/09/21 07:08:25;;;;;;;;;;;;;;;9.79;77.93;100216.19;8260345;28;20297;-74
2022/09/21 07:12:48;;;;;;;;;;;;;;;10.21;77.19;100215.81;8261733;28;19929;-74
2022/09/21 07:16:49;;;;;;;;;;;;;;;10.53;76.15;100216.13;8294328;28;20599;-74
2022/09/21 07:20:50;;;;;;;;;;;;;;;10.87;75.38;100212.94;8277074;28;19980;-75
2022/09/21 07:24:52;;;;;;;;;;;;;;;11.22;74.30;100214.91;8267381;28;19925;-75
2022/09/21 07:28:54;;;;;;;;;;;;;;;11.65;74.42;100217.75;8278847;28;19925;-74
2022/09/21 07:32:56;;;;;;;;;;;;;;;12.07;73.54;100215.34;8264156;28;19948;-75
2022/09/21 07:36:57;;;;;;;;;;;;;;;12.46;72.07;100212.81;8308053;28;19933;-76
2022/09/21 07:41:01;;;;;;;;;;;;;;;12.80;71.83;100211.97;8316114;28;19925;-75
2022/09/21 07:45:09;;;;;;;;;;;;;;;13.15;71.03;100203.25;8320930;28;19921;-76
2022/09/21 07:49:11;;;;;;;;;;;;;;;13.50;70.06;100205.78;8312213;28;20393;-76
2022/09/21 07:53:15;;;;;;;;;;;;;;;13.74;69.07;100205.69;8307886;28;19925;-75
2022/09/21 08:01:37;;;;;;;;;;;;;;;14.31;66.97;100210.59;8314154;28;19975;-75
2022/09/21 08:05:38;;;;;;;;;;;;;;;14.65;66.59;100200.81;8322620;28;19925;-75
2022/09/21 08:09:40;;;;;;;;;;;;;;;14.93;65.58;100199.72;8315711;28;19955;-76
2022/09/21 08:13:51;;;;;;;;;;;;;;;15.20;64.63;100202.94;8318243;28;19924;-76
2022/09/21 08:17:53;;;;;;;;;;;;;;;15.40;62.91;100195.72;8319686;28;20346;-76
2022/09/21 08:21:54;;;;;;;;;;;;;;;15.66;62.27;100198.97;8312533;28;20685;-75
2022/09/21 08:25:59;;;;;;;;;;;;;;;15.79;61.37;100201.41;8315183;28;19933;-76
2022/09/21 08:30:01;;;;;;;;;;;;;;;15.93;60.88;100196.88;8308675;28;20369;-75
2022/09/21 08:34:03;;;;;;;;;;;;;;;16.09;59.88;100200.16;8312695;28;20338;-75
2022/09/21 08:38:05;;;;;;;;;;;;;;;16.24;59.32;100199.94;8312085;28;19925;-75
2022/09/21 08:42:30;;;;;;;;;;;;;;;16.43;59.13;100196.16;8317589;28;19925;-76
2022/09/21 08:46:32;;;;;;;;;;;;;;;16.55;58.62;100200.34;8319327;28;20363;-76
2022/09/21 08:50:45;;;;;;;;;;;;;;;16.65;57.28;100201.91;8313533;28;19929;-76
2022/09/21 08:54:49;;;;;;;;;;;;;;;16.72;56.31;100193.09;8309852;28;19933;-76
2022/09/21 08:58:50;;;;;;;;;;;;;;;16.88;56.58;100193.72;8322046;28;20376;-76
2022/09/21 09:03:17;;;;;;;;;;;;;;;17.05;56.29;100191.63;8314741;28;20413;-76
2022/09/21 09:07:43;;;;;;;;;;;;;;;17.25;56.34;100187.81;8305724;28;19951;-76
2022/09/21 09:12:03;;;;;;;;;;;;;;;17.43;55.52;100190.09;8314653;28;19925;-76
2022/09/21 09:16:14;;;;;;;;;;;;;;;17.50;54.46;100184.66;8316872;28;19925;-76
2022/09/21 09:20:22;;;;;;;;;;;;;;;17.64;53.28;100192.28;8310523;28;20333;-76
2022/09/21 09:24:30;;;;;;;;;;;;;;;17.59;53.09;100183.59;8307931;28;19929;-76
2022/09/21 09:28:47;;;;;;;;;;;;;;;17.62;52.25;100187.94;8305502;28;20354;-76
2022/09/21 09:33:06;;;;;;;;;;;;;;;17.65;51.38;100194.00;8304930;28;19995;-76
2022/09/21 09:37:10;;;;;;;;;;;;;;;17.71;51.12;100180.75;8311380;28;19925;-76
2022/09/21 09:41:21;;;;;;;;;;;;;;;17.83;51.09;100170.91;8312056;28;19992;-77
2022/09/21 09:45:28;;;;;;;;;;;;;;;17.93;50.48;100172.41;8309002;28;19925;-77
2022/09/21 09:49:56;;;;;;;;;;;;;;;18.00;49.53;100171.41;8304872;28;19979;-76
2022/09/21 09:53:58;;;;;;;;;;;;;;;17.93;49.00;100170.66;8313599;28;19928;-76
2022/09/21 09:58:00;;;;;;;;;;;;;;;17.97;49.31;100171.47;8307126;28;19925;-77
2022/09/21 10:02:04;;;;;;;;;;;;;;;18.04;48.81;100163.41;8305619;28;19956;-77
2022/09/21 10:06:11;;;;;;;;;;;;;;;18.12;48.71;100165.84;8316044;28;20346;-76
2022/09/21 10:10:25;;;;;;;;;;;;;;;18.17;48.64;100157.88;8309828;28;20667;-77
2022/09/21 10:14:30;;;;;;;;;;;;;;;18.31;48.16;100147.88;8313601;28;19929;-77
2022/09/21 10:18:38;;;;;;;;;;;;;;;18.34;47.30;100148.69;8313101;28;19947;-76
2022/09/21 10:22:53;;;;;;;;;;;;;;;18.40;46.48;100138.03;8320649;28;20350;-77
2022/09/21 10:27:14;;;;;;;;;;;;;;;18.50;45.70;100143.94;8300238;28;19999;-77
2022/09/21 10:31:23;;;;;;;;;;;;;;;18.60;45.12;100139.28;8292525;28;20344;-77
2022/09/21 10:35:47;;;;;;;;;;;;;;;18.51;44.50;100136.91;8319941;28;20418;-76
2022/09/21 10:39:54;;;;;;;;;;;;;;;18.58;44.77;100141.09;8310256;28;20191;-77
2022/09/21 10:43:55;;;;;;;;;;;;;;;18.70;44.85;100130.31;8311470;28;20354;-77
2022/09/21 10:47:58;;;;;;;;;;;;;;;18.82;44.62;100124.72;8312840;28;20280;-77
2022/09/21 10:52:01;;;;;;;;;;;;;;;18.89;43.67;100122.81;8315111;28;19928;-76
2022/09/21 10:56:12;;;;;;;;;;;;;;;19.06;43.60;100117.09;8330639;28;19921;-77
2022/09/21 11:00:20;;;;;;;;;;;;;;;19.19;43.92;100116.69;8319679;28;19955;-77
2022/09/21 11:04:34;;;;;;;;;;;;;;;19.32;43.79;100117.19;8307896;28;19932;-77
2022/09/21 11:08:38;;;;;;;;;;;;;;;19.33;43.53;100114.53;8307450;28;20421;-76
2022/09/21 11:12:43;;;;;;;;;;;;;;;19.43;42.58;100112.50;8307466;28;19999;-76
2022/09/21 11:17:02;;;;;;;;;;;;;;;19.55;42.11;100111.28;8297627;28;20345;-77
2022/09/21 11:21:08;;;;;;;;;;;;;;;19.60;42.07;100107.63;8303496;28;20374;-77
2022/09/21 11:25:18;;;;;;;;;;;;;;;19.60;42.86;100110.28;8328395;28;19944;-77
2022/09/21 11:29:25;;;;;;;;;;;;;;;19.68;42.50;100098.63;8291428;28;19928;-77
2022/09/21 11:33:46;;;;;;;;;;;;;;;19.77;42.70;100095.72;8311175;28;20316;-77
2022/09/21 11:37:49;;;;;;;;;;;;;;;19.82;41.86;100096.44;8307375;28;19928;-77
2022/09/21 11:42:10;;;;;;;;;;;;;;;19.89;41.72;100104.09;8310939;28;20310;-77
2022/09/21 11:46:21;;;;;;;;;;;;;;;19.84;41.28;100098.13;8326980;28;19983;-77
2022/09/21 11:50:29;;;;;;;;;;;;;;;19.83;40.64;100091.13;8316159;28;19959;-76
2022/09/21 11:54:47;;;;;;;;;;;;;;;19.87;41.07;100083.97;8307408;28;20346;-77
2022/09/21 11:58:59;;;;;;;;;;;;;;;20.04;40.63;100081.66;8327336;28;20105;-76
2022/09/21 12:03:26;;;;;;;;;;;;;;;20.05;40.83;100082.53;8309301;28;19932;-77
2022/09/21 12:07:42;;;;;;;;;;;;;;;20.03;39.97;100077.31;8289568;28;19983;-77
2022/09/21 12:11:48;;;;;;;;;;;;;;;20.04;39.82;100081.66;8315164;28;19924;-77
2022/09/21 12:15:49;;;;;;;;;;;;;;;20.13;40.35;100077.88;8304923;28;20651;-77
2022/09/21 12:20:06;;;;;;;;;;;;;;;20.14;40.68;100069.94;8311507;28;19924;-77
2022/09/21 12:24:21;;;;;;;;;;;;;;;20.12;40.15;100071.75;8311472;28;19979;-77
2022/09/21 12:28:25;;;;;;;;;;;;;;;20.14;40.10;100058.50;8313350;28;19925;-76
2022/09/21 12:32:46;;;;;;;;;;;;;;;20.24;40.37;100046.72;8315276;28;19924;-77
2022/09/21 12:36:56;;;;;;;;;;;;;;;20.13;39.27;100041.84;8304146;28;20353;-76
2022/09/21 12:41:17;;;;;;;;;;;;;;;20.12;39.44;100047.16;8313169;28;20563;-76
2022/09/21 12:45:24;;;;;;;;;;;;;;;20.08;38.86;100042.88;8309683;28;19925;-76
2022/09/21 12:49:29;;;;;;;;;;;;;;;19.82;39.45;100039.31;8296727;28;20023;-77
2022/09/21 12:53:32;;;;;;;;;;;;;;;19.64;39.97;100037.25;8318783;28;19955;-77
2022/09/21 12:57:55;;;;;;;;;;;;;;;19.68;40.60;100023.06;8314719;28;20010;-77
2022/09/21 13:02:19;;;;;;;;;;;;;;;19.98;40.47;100033.56;8332460;28;19931;-77
2022/09/21 13:06:23;;;;;;;;;;;;;;;19.90;39.76;100034.66;8299144;28;19929;-77
2022/09/21 13:10:30;;;;;;;;;;;;;;;19.77;39.43;100028.06;8304165;28;19925;-77
2022/09/21 13:14:35;;;;;;;;;;;;;;;19.35;39.75;100024.94;8323241;28;19971;-77
2022/09/21 13:18:39;;;;;;;;;;;;;;;18.98;40.76;100027.78;8320180;28;20365;-77
2022/09/21 13:22:41;;;;;;;;;;;;;;;19.05;40.75;100024.09;8338221;28;19979;-77
2022/09/21 13:26:49;;;;;;;;;;;;;;;19.29;39.97;100020.72;8342733;28;19929;-77
2022/09/21 13:31:15;;;;;;;;;;;;;;;19.59;40.26;100021.59;8314757;28;19933;-76
2022/09/21 13:35:49;;;;;;;;;;;;;;;19.91;39.16;100019.69;8318041;28;19924;-76
2022/09/21 13:40:00;;;;;;;;;;;;;;;19.89;39.03;100009.19;8320259;28;19929;-77
2022/09/21 13:44:04;;;;;;;;;;;;;;;19.99;38.72;100009.78;8317805;28;19959;-77
2022/09/21 13:48:12;;;;;;;;;;;;;;;19.92;39.07;100008.25;8315106;28;20425;-77
2022/09/21 13:52:14;;;;;;;;;;;;;;;19.82;39.31;100007.69;8318191;28;20257;-77
2022/09/21 13:56:19;;;;;;;;;;;;;;;19.31;39.56;100004.88;8309696;28;19925;-76
2022/09/21 14:00:20;;;;;;;;;;;;;;;19.01;40.05;99998.75;8311461;28;19925;-77
2022/09/21 14:04:26;;;;;;;;;;;;;;;19.19;39.94;100006.09;8317443;28;19925;-77
2022/09/21 14:08:32;;;;;;;;;;;;;;;19.40;39.53;100001.97;8310823;28;19929;-78
2022/09/21 14:12:38;;;;;;;;;;;;;;;19.52;38.91;99991.03;8310697;28;19991;-77
2022/09/21 14:16:46;;;;;;;;;;;;;;;19.58;39.35;99992.69;8310834;28;20274;-77
2022/09/21 14:21:07;;;;;;;;;;;;;;;19.76;38.63;99985.97;8314757;28;19976;-77
2022/09/21 14:25:21;;;;;;;;;;;;;;;19.87;38.48;99983.81;8312373;28;19935;-77
2022/09/21 14:29:25;;;;;;;;;;;;;;;20.05;38.05;99988.47;8308629;28;19928;-78
2022/09/21 14:33:46;;;;;;;;;;;;;;;20.14;37.07;99977.63;8308704;28;20085;-78
2022/09/21 14:37:50;;;;;;;;;;;;;;;19.93;37.33;99986.28;8312747;28;19928;-77
2022/09/21 14:42:01;;;;;;;;;;;;;;;19.38;37.74;99987.97;8307277;28;20429;-77
2022/09/21 14:46:11;;;;;;;;;;;;;;;18.98;38.51;99989.16;8309767;28;20321;-78
2022/09/21 14:50:23;;;;;;;;;;;;;;;18.70;39.33;99983.84;8321853;28;20270;-77
2022/09/21 14:54:31;;;;;;;;;;;;;;;18.86;39.52;99968.50;8307683;28;20002;-77
2022/09/21 14:58:39;;;;;;;;;;;;;;;18.97;39.48;99969.03;8313651;28;19932;-78
2022/09/21 15:02:46;;;;;;;;;;;;;;;19.18;40.01;99961.38;8308434;28;19935;-77
2022/09/21 15:11:20;;;;;;;;;;;;;;;19.71;37.10;99975.53;8308878;28;19998;-76
2022/09/21 15:15:28;;;;;;;;;;;;;;;19.67;36.03;99962.53;8304233;28;19929;-77
2022/09/21 15:19:36;;;;;;;;;;;;;;;19.20;37.06;99963.06;8304915;28;19925;-77
2022/09/21 15:23:38;;;;;;;;;;;;;;;18.77;38.36;99965.25;8300037;28;20487;-76
2022/09/21 15:27:45;;;;;;;;;;;;;;;18.36;39.81;99962.84;8321902;28;19928;-76
2022/09/21 15:31:46;;;;;;;;;;;;;;;18.02;40.94;99968.13;8304913;28;19987;-76
2022/09/21 15:35:48;;;;;;;;;;;;;;;17.90;41.39;99962.28;8303272;28;20846;-76
2022/09/21 15:39:58;;;;;;;;;;;;;;;18.28;41.57;99954.28;8297109;28;19932;-76
2022/09/21 15:44:17;;;;;;;;;;;;;;;18.88;41.49;99950.88;8307844;28;19932;-76
2022/09/21 15:48:19;;;;;;;;;;;;;;;19.48;39.69;99952.53;8302294;28;21064;-76
2022/09/21 15:52:31;;;;;;;;;;;;;;;19.92;37.86;99955.53;8321886;28;19932;-76
2022/09/21 15:56:39;;;;;;;;;;;;;;;20.62;36.77;99957.50;8304423;28;19928;-76
2022/09/21 16:00:52;;;;;;;;;;;;;;;21.27;35.17;99952.41;8305221;28;19929;-76
2022/09/21 16:04:54;;;;;;;;;;;;;;;20.72;35.48;99966.81;8311147;28;20727;-77
2022/09/21 16:08:55;;;;;;;;;;;;;;;19.84;37.41;99962.84;8306439;28;19929;-76
2022/09/21 16:14:52;;;;;;;;;;;;;;;19.05;39.31;99962.69;8292360;28;19976;-77
2022/09/21 16:17:25;;;;;;;;;;;;;;;18.37;40.83;99966.31;8308096;28;19925;-77
2022/09/21 16:21:26;;;;;;;;;;;;;;;17.89;41.70;99957.94;8311663;28;19929;-77
2022/09/21 16:25:36;;;;;;;;;;;;;;;17.53;42.48;99963.16;8321477;28;19940;-76
2022/09/21 16:29:39;;;;;;;;;;;;;;;17.28;43.65;99967.25;8319283;28;19925;-76
2022/09/21 16:33:42;;;;;;;;;;;;;;;17.02;45.42;99975.69;8312493;28;20002;-77
2022/09/21 16:37:44;;;;;;;;;;;;;;;16.71;46.93;99976.34;8307481;28;19931;-76
2022/09/21 16:41:50;;;;;;;;;;;;;;;16.60;48.21;99979.13;8304692;28;19979;-76
2022/09/21 16:45:51;;;;;;;;;;;;;;;16.41;47.67;99979.50;8310571;28;19987;-77
2022/09/21 16:50:00;;;;;;;;;;;;;;;16.32;46.49;99975.28;8303651;28;19933;-76
2022/09/21 16:54:01;;;;;;;;;;;;;;;16.20;47.20;99978.16;8321891;28;20006;-77
2022/09/21 16:58:03;;;;;;;;;;;;;;;16.13;46.24;99987.84;8316974;28;19924;-76
2022/09/21 17:02:04;;;;;;;;;;;;;;;16.05;46.56;99992.38;8317449;28;19924;-76
2022/09/21 17:06:17;;;;;;;;;;;;;;;15.89;47.33;99986.53;8313254;28;19925;-76
2022/09/21 17:10:19;;;;;;;;;;;;;;;15.75;48.44;99983.25;8311320;28;19982;-76
2022/09/21 17:14:28;;;;;;;;;;;;;;;15.63;48.89;99986.09;8305880;28;19925;-76
2022/09/21 17:18:36;;;;;;;;;;;;;;;15.47;48.42;99993.25;8320659;28;19929;-77
2022/09/21 17:22:37;;;;;;;;;;;;;;;15.31;50.70;99983.91;8312446;28;19982;-77
2022/09/21 17:26:38;;;;;;;;;;;;;;;14.94;54.94;99988.75;8321109;28;20373;-76
2022/09/21 17:30:41;;;;;;;;;;;;;;;14.70;56.94;99989.91;8314272;28;19929;-76
2022/09/21 17:34:43;;;;;;;;;;;;;;;14.36;57.89;99995.47;8315167;28;19925;-76
2022/09/21 17:38:45;;;;;;;;;;;;;;;14.10;59.67;99990.50;8309725;28;19988;-76
2022/09/21 17:42:47;;;;;;;;;;;;;;;13.84;60.42;99995.09;8317810;28;20239;-76
2022/09/21 17:46:54;;;;;;;;;;;;;;;13.62;61.21;99996.97;8322372;28;19968;-76
2022/09/21 17:50:56;;;;;;;;;;;;;;;13.36;61.81;100010.19;8288896;28;19936;-75
2022/09/21 17:54:58;;;;;;;;;;;;;;;13.19;62.63;100014.63;8302712;28;19925;-76
2022/09/21 17:59:16;;;;;;;;;;;;;;;13.02;62.90;100014.66;8305459;28;19925;-74
2022/09/21 18:03:26;;;;;;;;;;;;;;;12.85;63.66;100021.69;8311358;28;19987;-74
2022/09/21 18:07:28;;;;;;;;;;;;;;;12.71;63.27;100016.50;8327061;28;19979;-76
2022/09/21 18:11:48;;;;;;;;;;;;;;;12.53;64.75;100019.16;8314931;28;19978;-76
2022/09/21 18:15:49;;;;;;;;;;;;;;;12.32;65.57;100022.69;8313716;28;19994;-76
2022/09/21 18:19:54;;;;;;;;;;;;;;;12.20;66.56;100012.28;8321425;28;19932;-76
2022/09/21 18:23:59;;;;;;;;;;;;;;;12.09;67.29;100025.31;8290449;28;19924;-76
2022/09/21 18:28:11;;;;;;;;;;;;;;;12.00;67.10;100028.78;8312615;28;20627;-76
2022/09/21 18:32:27;;;;;;;;;;;;;;;11.87;67.39;100034.00;8311735;28;19936;-76
2022/09/21 18:36:39;;;;;;;;;;;;;;;11.72;68.35;100030.47;8315797;28;19925;-76
2022/09/21 18:40:50;;;;;;;;;;;;;;;11.64;68.84;100034.78;8314650;28;19960;-76
2022/09/21 18:44:57;;;;;;;;;;;;;;;11.56;69.13;100039.13;8313003;28;19979;-76
2022/09/21 18:49:08;;;;;;;;;;;;;;;11.39;69.65;100035.59;8312619;28;19928;-76
2022/09/21 18:53:15;;;;;;;;;;;;;;;11.27;70.39;100044.22;8310820;28;19925;-76
2022/09/21 18:57:24;;;;;;;;;;;;;;;11.20;70.87;100040.75;8322639;28;20681;-76
2022/09/21 19:01:28;;;;;;;;;;;;;;;11.06;71.40;100047.63;8321699;28;19926;-76
2022/09/21 19:05:30;;;;;;;;;;;;;;;10.97;71.35;100041.53;8305200;28;19925;-76
2022/09/21 19:09:51;;;;;;;;;;;;;;;10.85;71.59;100044.94;8322053;28;19925;-75
2022/09/21 19:13:53;;;;;;;;;;;;;;;10.73;72.57;100044.84;8321115;28;19998;-76
2022/09/21 19:18:23;;;;;;;;;;;;;;;10.66;72.42;100043.09;8313930;28;19928;-76
2022/09/21 19:22:43;;;;;;;;;;;;;;;10.54;72.87;100049.06;8308234;28;19952;-76
2022/09/21 19:26:48;;;;;;;;;;;;;;;10.45;73.68;100049.03;8307578;28;19982;-76
2022/09/21 19:30:51;;;;;;;;;;;;;;;10.35;73.97;100045.50;8315195;28;19983;-76
2022/09/21 19:35:11;;;;;;;;;;;;;;;10.26;74.62;100050.63;8317388;28;19924;-75
2022/09/21 19:39:12;;;;;;;;;;;;;;;10.18;74.53;100050.53;8312694;28;20666;-76
2022/09/21 19:43:29;;;;;;;;;;;;;;;10.10;75.19;100048.75;8313357;28;19928;-75
2022/09/21 19:47:35;;;;;;;;;;;;;;;9.99;75.21;100046.91;8327311;28;19924;-75
2022/09/21 19:51:44;;;;;;;;;;;;;;;9.92;75.76;100052.06;8308780;28;19925;-75
2022/09/21 20:00:07;;;;;;;;;;;;;;;9.72;76.83;100051.88;8310542;28;19929;-76
2022/09/21 20:04:13;;;;;;;;;;;;;;;9.63;77.75;100046.56;8310472;28;19952;-75
2022/09/21 20:08:15;;;;;;;;;;;;;;;9.54;78.20;100057.75;8312845;28;19933;-76
2022/09/21 20:12:25;;;;;;;;;;;;;;;9.49;78.28;100048.16;8314689;28;19974;-75
2022/09/21 20:16:27;;;;;;;;;;;;;;;9.39;78.57;100049.78;8306675;28;19924;-76
2022/09/21 20:20:28;;;;;;;;;;;;;;;9.35;78.32;100048.91;8307743;28;19925;-76
2022/09/21 20:24:30;;;;;;;;;;;;;;;9.29;78.78;100042.75;8304922;28;20265;-76
2022/09/21 20:28:37;;;;;;;;;;;;;;;9.19;79.25;100048.69;8306167;28;19925;-76
2022/09/21 20:32:40;;;;;;;;;;;;;;;9.11;79.71;100050.31;8326776;28;19952;-76
2022/09/21 20:36:48;;;;;;;;;;;;;;;9.02;79.88;100046.78;8307472;28;20422;-76
2022/09/21 20:40:50;;;;;;;;;;;;;;;8.96;80.07;100038.91;8301676;28;19928;-76
2022/09/21 20:44:52;;;;;;;;;;;;;;;8.88;80.47;100043.13;8303500;28;19921;-76
2022/09/21 20:49:04;;;;;;;;;;;;;;;8.81;81.08;100037.88;8303977;28;20278;-75
2022/09/21 20:53:06;;;;;;;;;;;;;;;8.74;80.79;100044.66;8300843;28;19983;-75
2022/09/21 20:57:15;;;;;;;;;;;;;;;8.70;81.40;100050.66;8298924;28;19924;-76
2022/09/21 21:01:16;;;;;;;;;;;;;;;8.63;81.34;100054.91;8308067;28;20225;-77
2022/09/21 21:05:17;;;;;;;;;;;;;;;8.58;81.63;100043.59;8309861;28;19924;-77
2022/09/21 21:09:20;;;;;;;;;;;;;;;8.53;81.89;100044.38;8308318;28;19964;-77
2022/09/21 21:13:21;;;;;;;;;;;;;;;8.46;81.96;100044.31;8321424;28;19974;-77
2022/09/21 21:17:23;;;;;;;;;;;;;;;8.40;82.19;100044.19;8323427;28;19935;-77
2022/09/21 21:21:24;;;;;;;;;;;;;;;8.31;82.23;100044.03;8306095;28;19925;-77
2022/09/21 21:25:26;;;;;;;;;;;;;;;8.22;82.47;100050.78;8303395;28;19933;-77
2022/09/21 21:29:27;;;;;;;;;;;;;;;8.17;82.82;100053.28;8300460;28;19932;-77
2022/09/21 21:33:29;;;;;;;;;;;;;;;8.11;82.50;100050.63;8310016;28;19972;-77